Time;durP1;ratioP1;P1;durP2;ratioP2;P2;SDS_P1;SDS_P2;PMS_P1;PMS_P2;Temp;Humidity;BMP_temperature;BMP_pressure;BME280_temperature;BME280_humidity;BME280_pressure;Samples;Min_cycle;Max_cycle;Signal;HPM_P1;HPM_P2
2022/11/18 00:00:45;;;;;;;;;;;7.10;99.90;;;;;;4922269;28;207576;-70
2022/11/18 00:03:11;;;;;;;;;;;7.10;99.90;;;;;;4999164;28;19929;-69
2022/11/18 00:05:37;;;;;;;;;;;7.10;99.90;;;;;;4910614;28;229746;-70
2022/11/18 00:08:03;;;;;;;;;;;7.10;99.90;;;;;;4987986;28;19926;-70
2022/11/18 00:10:29;;;;;;;;;;;7.10;99.90;;;;;;4923405;28;215547;-70
2022/11/18 00:15:41;;;;;;;;;;;7.10;99.90;;;;;;4959217;28;182084;-70
2022/11/18 00:18:07;;;;;;;;;;;7.10;99.90;;;;;;4981090;28;19926;-71
2022/11/18 00:20:33;;;;;;;;;;;7.10;99.90;;;;;;4940594;28;206363;-70
2022/11/18 00:22:59;;;;;;;;;;;7.10;99.90;;;;;;4998956;28;19926;-70
2022/11/18 00:25:26;;;;;;;;;;;7.10;99.90;;;;;;4959103;28;144139;-69
2022/11/18 00:27:52;;;;;;;;;;;7.10;99.90;;;;;;4993244;28;19929;-70
2022/11/18 00:30:18;;;;;;;;;;;7.10;99.90;;;;;;4947577;28;211893;-70
2022/11/18 00:32:44;;;;;;;;;;;7.10;99.90;;;;;;4955005;28;19929;-70
2022/11/18 00:35:10;;;;;;;;;;;7.10;99.90;;;;;;4903393;28;212497;-71
2022/11/18 00:37:36;;;;;;;;;;;7.10;99.90;;;;;;4975066;28;20092;-70
2022/11/18 00:40:02;;;;;;;;;;;7.10;99.90;;;;;;4913971;28;208347;-70
2022/11/18 00:45:13;;;;;;;;;;;7.10;99.90;;;;;;4918096;28;264626;-70
2022/11/18 00:47:38;;;;;;;;;;;7.20;99.90;;;;;;4997767;28;20454;-70
2022/11/18 00:50:05;;;;;;;;;;;7.20;99.90;;;;;;4965739;28;207216;-70
2022/11/18 00:52:31;;;;;;;;;;;7.20;99.90;;;;;;4994412;28;19934;-71
2022/11/18 00:54:57;;;;;;;;;;;7.20;99.90;;;;;;4950257;28;215501;-72
2022/11/18 00:57:23;;;;;;;;;;;7.20;99.90;;;;;;4967953;28;22775;-71
2022/11/18 00:59:49;;;;;;;;;;;7.20;99.90;;;;;;4997157;28;19996;-69
2022/11/18 01:02:15;;;;;;;;;;;7.20;99.90;;;;;;4967982;28;161744;-70
2022/11/18 01:04:41;;;;;;;;;;;7.20;99.90;;;;;;4967757;28;19988;-70
2022/11/18 01:07:06;;;;;;;;;;;7.20;99.90;;;;;;4940495;28;207284;-70
2022/11/18 01:09:32;;;;;;;;;;;7.20;99.90;;;;;;4986519;28;20009;-71
2022/11/18 01:14:43;;;;;;;;;;;7.20;99.90;;;;;;4968810;28;19948;-70
2022/11/18 01:17:09;;;;;;;;;;;7.20;99.90;;;;;;4954732;28;130452;-70
2022/11/18 01:19:35;;;;;;;;;;;7.20;99.90;;;;;;4971180;28;19930;-70
2022/11/18 01:22:02;;;;;;;;;;;7.20;99.90;;;;;;4955495;28;187706;-70
2022/11/18 01:24:28;;;;;;;;;;;7.20;99.90;;;;;;4973350;28;19925;-70
2022/11/18 01:26:54;;;;;;;;;;;7.20;99.90;;;;;;4962510;28;211448;-70
2022/11/18 01:29:20;;;;;;;;;;;7.20;99.90;;;;;;4970651;28;19941;-70
2022/11/18 01:31:46;;;;;;;;;;;7.20;99.90;;;;;;4942464;28;220896;-70
2022/11/18 01:34:12;;;;;;;;;;;7.20;99.90;;;;;;4957442;28;20399;-71
2022/11/18 01:36:38;;;;;;;;;;;7.20;99.90;;;;;;4945856;28;207467;-70
2022/11/18 01:39:04;;;;;;;;;;;7.20;99.90;;;;;;4979883;28;20132;-70
2022/11/18 01:41:30;;;;;;;;;;;7.20;99.90;;;;;;4943292;28;204471;-70
2022/11/18 01:44:00;;;;;;;;;;;7.20;99.90;;;;;;4986008;28;19933;-71
2022/11/18 01:46:28;;;;;;;;;;;7.20;99.90;;;;;;4953946;28;225585;-70
2022/11/18 01:48:55;;;;;;;;;;;7.10;99.90;;;;;;4975139;28;19922;-70
2022/11/18 01:51:47;;;;;;;;;;;7.20;99.90;;;;;;4965290;28;153793;-70
2022/11/18 01:54:19;;;;;;;;;;;7.20;99.90;;;;;;4967543;28;19926;-70
2022/11/18 01:56:48;;;;;;;;;;;7.20;99.90;;;;;;4963717;28;222226;-71
2022/11/18 01:59:18;;;;;;;;;;;7.20;99.90;;;;;;4985947;28;19922;-71
2022/11/18 02:01:44;;;;;;;;;;;7.20;99.90;;;;;;4929557;28;210035;-71
2022/11/18 02:04:10;;;;;;;;;;;7.20;99.90;;;;;;4954061;28;19923;-70
2022/11/18 02:06:36;;;;;;;;;;;7.20;99.90;;;;;;4942807;28;238427;-71
2022/11/18 02:09:03;;;;;;;;;;;7.20;99.90;;;;;;4989325;28;19926;-71
2022/11/18 02:14:14;;;;;;;;;;;7.20;99.90;;;;;;4969163;28;19933;-71
2022/11/18 02:16:55;;;;;;;;;;;7.20;99.90;;;;;;4953016;28;135890;-71
2022/11/18 02:19:24;;;;;;;;;;;7.20;99.90;;;;;;4972873;28;20315;-71
2022/11/18 02:21:56;;;;;;;;;;;7.20;99.90;;;;;;4954391;28;193058;-71
2022/11/18 02:24:25;;;;;;;;;;;7.20;99.90;;;;;;4996245;28;19946;-71
2022/11/18 02:26:57;;;;;;;;;;;7.20;99.90;;;;;;4952356;28;208123;-71
2022/11/18 02:29:25;;;;;;;;;;;7.20;99.90;;;;;;4997636;28;19926;-71
2022/11/18 02:31:56;;;;;;;;;;;7.20;99.90;;;;;;4956450;28;152515;-71
2022/11/18 02:34:43;;;;;;;;;;;7.20;99.90;;;;;;4998674;28;19953;-71
2022/11/18 02:37:09;;;;;;;;;;;7.20;99.90;;;;;;4935679;28;206663;-71
2022/11/18 02:39:36;;;;;;;;;;;7.20;99.90;;;;;;4964550;28;19935;-71
2022/11/18 02:42:06;;;;;;;;;;;7.20;99.90;;;;;;4965993;28;110179;-71
2022/11/18 02:44:34;;;;;;;;;;;7.20;99.90;;;;;;4981865;28;20464;-71
2022/11/18 02:47:02;;;;;;;;;;;7.20;99.90;;;;;;4937373;28;211789;-70
2022/11/18 02:49:34;;;;;;;;;;;7.20;99.90;;;;;;4950511;28;19926;-70
2022/11/18 02:52:01;;;;;;;;;;;7.20;99.90;;;;;;4964774;28;208576;-70
2022/11/18 02:54:27;;;;;;;;;;;7.20;99.90;;;;;;4966859;28;19926;-70
2022/11/18 02:56:54;;;;;;;;;;;7.10;99.90;;;;;;4965584;28;208080;-71
2022/11/18 02:59:20;;;;;;;;;;;7.10;99.90;;;;;;4969806;28;19922;-70
2022/11/18 03:01:46;;;;;;;;;;;7.10;99.90;;;;;;4945529;28;215912;-70
2022/11/18 03:04:12;;;;;;;;;;;7.10;99.90;;;;;;4968987;28;19930;-70
2022/11/18 03:06:40;;;;;;;;;;;7.10;99.90;;;;;;4945135;28;208675;-70
2022/11/18 03:09:12;;;;;;;;;;;7.10;99.90;;;;;;4986312;28;19926;-70
2022/11/18 03:11:41;;;;;;;;;;;7.10;99.90;;;;;;4939146;28;209129;-71
2022/11/18 03:14:10;;;;;;;;;;;7.10;99.90;;;;;;4956293;28;19936;-70
2022/11/18 03:16:44;;;;;;;;;;;7.10;99.90;;;;;;4944419;28;207827;-70
2022/11/18 03:19:23;;;;;;;;;;;7.10;99.90;;;;;;4971880;28;19926;-70
2022/11/18 03:22:15;;;;;;;;;;;7.10;99.90;;;;;;4964827;28;193895;-70
2022/11/18 03:24:44;;;;;;;;;;;7.10;99.90;;;;;;4980332;28;19947;-70
2022/11/18 03:27:17;;;;;;;;;;;7.10;99.90;;;;;;4964097;28;207181;-70
2022/11/18 03:29:46;;;;;;;;;;;7.10;99.90;;;;;;4980894;28;19933;-70
2022/11/18 03:32:14;;;;;;;;;;;7.10;99.90;;;;;;4947133;28;215550;-70
2022/11/18 03:34:49;;;;;;;;;;;7.10;99.90;;;;;;4976216;28;19925;-70
2022/11/18 03:37:16;;;;;;;;;;;7.10;99.90;;;;;;4966304;28;208401;-70
2022/11/18 03:39:45;;;;;;;;;;;7.10;99.90;;;;;;4968169;28;19929;-70
2022/11/18 03:42:18;;;;;;;;;;;7.10;99.90;;;;;;4951358;28;196296;-71
2022/11/18 03:44:47;;;;;;;;;;;7.10;99.90;;;;;;4947024;28;19926;-70
2022/11/18 03:47:18;;;;;;;;;;;7.10;99.90;;;;;;4945012;28;209169;-70
2022/11/18 03:49:48;;;;;;;;;;;7.10;99.90;;;;;;4967166;28;19926;-70
2022/11/18 03:52:19;;;;;;;;;;;7.10;99.90;;;;;;4970273;28;149320;-71
2022/11/18 03:54:47;;;;;;;;;;;7.10;99.90;;;;;;4998610;28;19933;-70
2022/11/18 03:57:15;;;;;;;;;;;7.10;99.90;;;;;;4936792;28;187525;-70
2022/11/18 03:59:48;;;;;;;;;;;7.10;99.90;;;;;;4967824;28;19922;-70
2022/11/18 04:02:19;;;;;;;;;;;7.10;99.90;;;;;;4942965;28;212334;-70
2022/11/18 04:04:46;;;;;;;;;;;7.00;99.90;;;;;;4952044;28;19937;-71
2022/11/18 04:07:22;;;;;;;;;;;7.00;99.90;;;;;;4917140;28;234595;-70
2022/11/18 04:09:55;;;;;;;;;;;7.10;99.90;;;;;;4953636;28;19938;-71
2022/11/18 04:12:22;;;;;;;;;;;7.00;99.90;;;;;;4942094;28;204583;-71
2022/11/18 04:14:51;;;;;;;;;;;7.00;99.90;;;;;;4979025;28;19930;-71
2022/11/18 04:17:19;;;;;;;;;;;7.00;99.90;;;;;;4963592;28;207149;-70
2022/11/18 04:19:45;;;;;;;;;;;7.00;99.90;;;;;;4972230;28;19926;-70
2022/11/18 04:22:12;;;;;;;;;;;7.00;99.90;;;;;;4947008;28;207667;-70
2022/11/18 04:24:38;;;;;;;;;;;7.00;99.90;;;;;;4968339;28;19929;-70
2022/11/18 04:27:05;;;;;;;;;;;7.00;99.90;;;;;;4963107;28;215404;-71
2022/11/18 04:29:31;;;;;;;;;;;7.00;99.90;;;;;;4965579;28;20391;-70
2022/11/18 04:31:57;;;;;;;;;;;6.90;99.90;;;;;;4965193;28;209099;-70
2022/11/18 04:34:23;;;;;;;;;;;6.90;99.90;;;;;;4999055;28;19922;-70
2022/11/18 04:36:49;;;;;;;;;;;6.90;99.90;;;;;;4952964;28;134544;-71
2022/11/18 04:39:16;;;;;;;;;;;6.90;99.90;;;;;;5003338;28;19922;-71
2022/11/18 04:41:55;;;;;;;;;;;6.90;99.90;;;;;;4945099;28;203545;-71
2022/11/18 04:44:21;;;;;;;;;;;7.00;99.90;;;;;;4994608;28;19922;-71
2022/11/18 04:46:47;;;;;;;;;;;7.00;99.90;;;;;;4931143;28;210506;-71
2022/11/18 04:49:13;;;;;;;;;;;6.90;99.90;;;;;;4946147;28;19938;-71
2022/11/18 04:51:40;;;;;;;;;;;6.90;99.90;;;;;;4938138;28;210120;-71
2022/11/18 04:54:06;;;;;;;;;;;6.90;99.90;;;;;;4945838;28;20695;-71
2022/11/18 04:56:33;;;;;;;;;;;6.90;99.90;;;;;;4952867;28;119020;-71
2022/11/18 04:58:59;;;;;;;;;;;6.90;99.90;;;;;;5002264;28;20600;-71
2022/11/18 05:01:26;;;;;;;;;;;6.90;99.90;;;;;;4962093;28;150592;-71
2022/11/18 05:03:52;;;;;;;;;;;6.90;99.90;;;;;;4977209;28;19926;-71
2022/11/18 05:06:18;;;;;;;;;;;6.90;99.90;;;;;;4946873;28;182988;-71
2022/11/18 05:08:44;;;;;;;;;;;6.90;99.90;;;;;;4963086;28;19926;-71
2022/11/18 05:13:54;;;;;;;;;;;6.90;99.90;;;;;;4980966;28;19923;-70
2022/11/18 05:16:20;;;;;;;;;;;6.90;99.90;;;;;;4947625;28;205464;-71
2022/11/18 05:18:48;;;;;;;;;;;6.90;99.90;;;;;;4965121;28;20360;-71
2022/11/18 05:21:14;;;;;;;;;;;6.80;99.90;;;;;;4956648;28;197682;-70
2022/11/18 05:23:40;;;;;;;;;;;6.80;99.90;;;;;;4989996;28;19927;-71
2022/11/18 05:26:06;;;;;;;;;;;6.80;99.90;;;;;;4930895;28;196587;-71
2022/11/18 05:28:33;;;;;;;;;;;6.80;99.90;;;;;;4960021;28;19957;-71
2022/11/18 05:30:59;;;;;;;;;;;6.80;99.90;;;;;;4930073;28;186058;-71
2022/11/18 05:33:25;;;;;;;;;;;6.80;99.90;;;;;;4957970;28;19934;-71
2022/11/18 05:35:51;;;;;;;;;;;6.80;99.90;;;;;;4933004;28;169428;-71
2022/11/18 05:38:17;;;;;;;;;;;6.80;99.90;;;;;;4968901;28;19930;-71
2022/11/18 05:40:43;;;;;;;;;;;6.80;99.90;;;;;;4959517;28;210765;-71
2022/11/18 05:43:12;;;;;;;;;;;6.80;99.90;;;;;;4985051;28;19926;-70
2022/11/18 05:45:39;;;;;;;;;;;6.80;99.90;;;;;;4930872;28;213100;-70
2022/11/18 05:48:06;;;;;;;;;;;6.80;99.90;;;;;;5003016;28;19928;-71
2022/11/18 05:50:33;;;;;;;;;;;6.80;99.90;;;;;;4953063;28;185136;-71
2022/11/18 05:52:59;;;;;;;;;;;6.80;99.90;;;;;;4983834;28;19934;-71
2022/11/18 05:55:27;;;;;;;;;;;6.80;99.90;;;;;;4959080;28;165690;-72
2022/11/18 05:57:53;;;;;;;;;;;6.80;99.90;;;;;;4994905;28;19937;-71
2022/11/18 06:00:20;;;;;;;;;;;6.70;99.90;;;;;;4925097;28;205463;-72
2022/11/18 06:02:48;;;;;;;;;;;6.80;99.90;;;;;;4980803;28;19926;-70
2022/11/18 06:05:15;;;;;;;;;;;6.80;99.90;;;;;;4935249;28;208577;-71
2022/11/18 06:07:42;;;;;;;;;;;6.80;99.90;;;;;;5012415;28;19926;-71
2022/11/18 06:10:09;;;;;;;;;;;6.80;99.90;;;;;;4937190;28;232295;-70
2022/11/18 06:12:40;;;;;;;;;;;6.70;99.90;;;;;;4975108;28;19931;-70
2022/11/18 06:15:11;;;;;;;;;;;6.70;99.90;;;;;;4920362;28;208970;-70
2022/11/18 06:17:42;;;;;;;;;;;6.70;99.90;;;;;;5008252;28;19934;-70
2022/11/18 06:20:08;;;;;;;;;;;6.70;99.90;;;;;;4947192;28;206313;-70
2022/11/18 06:22:34;;;;;;;;;;;6.70;99.90;;;;;;4978706;28;19926;-70
2022/11/18 06:25:01;;;;;;;;;;;6.70;99.90;;;;;;4972045;28;208541;-70
2022/11/18 06:27:27;;;;;;;;;;;6.60;99.90;;;;;;4961465;28;20347;-72
2022/11/18 06:29:53;;;;;;;;;;;6.60;99.90;;;;;;4984239;28;207588;-71
2022/11/18 06:32:19;;;;;;;;;;;6.60;99.90;;;;;;4986592;28;82144;-71
2022/11/18 06:34:45;;;;;;;;;;;6.70;99.90;;;;;;4993863;28;19926;-71
2022/11/18 06:37:21;;;;;;;;;;;6.60;99.90;;;;;;4965998;28;203002;-71
2022/11/18 06:39:47;;;;;;;;;;;6.60;99.90;;;;;;4997399;28;19930;-71
2022/11/18 06:44:57;;;;;;;;;;;6.60;99.90;;;;;;4956619;28;218641;-71
2022/11/18 06:47:23;;;;;;;;;;;6.60;99.90;;;;;;4973622;28;257770;-71
2022/11/18 06:49:49;;;;;;;;;;;6.60;99.90;;;;;;4980316;28;19929;-72
2022/11/18 06:52:15;;;;;;;;;;;6.60;99.90;;;;;;4948099;28;206225;-71
2022/11/18 06:54:41;;;;;;;;;;;6.50;99.90;;;;;;5000515;28;20327;-71
2022/11/18 06:57:07;;;;;;;;;;;6.50;99.90;;;;;;4949618;28;206800;-71
2022/11/18 06:59:33;;;;;;;;;;;6.50;99.90;;;;;;4970898;28;19930;-71
2022/11/18 07:01:59;;;;;;;;;;;6.60;99.90;;;;;;4965638;28;243247;-71
2022/11/18 07:04:25;;;;;;;;;;;6.60;99.90;;;;;;4969202;28;19980;-71
2022/11/18 07:06:51;;;;;;;;;;;6.60;99.90;;;;;;4936030;28;226757;-71
2022/11/18 07:09:17;;;;;;;;;;;6.50;99.90;;;;;;4969066;28;19926;-72
2022/11/18 07:11:43;;;;;;;;;;;6.50;99.90;;;;;;4942729;28;209945;-72
2022/11/18 07:14:09;;;;;;;;;;;6.60;99.90;;;;;;4950722;28;20008;-73
2022/11/18 07:16:36;;;;;;;;;;;6.60;99.90;;;;;;4933640;28;210571;-72
2022/11/18 07:19:06;;;;;;;;;;;6.60;99.90;;;;;;4955479;28;19927;-72
2022/11/18 07:21:32;;;;;;;;;;;6.60;99.90;;;;;;4922047;28;253061;-71
2022/11/18 07:23:58;;;;;;;;;;;6.60;99.90;;;;;;4958687;28;19989;-71
2022/11/18 07:26:24;;;;;;;;;;;6.60;99.90;;;;;;4950467;28;202799;-72
2022/11/18 07:28:50;;;;;;;;;;;6.60;99.90;;;;;;4978493;28;19926;-71
2022/11/18 07:31:18;;;;;;;;;;;6.50;99.90;;;;;;4953824;28;172884;-71
2022/11/18 07:33:44;;;;;;;;;;;6.50;99.90;;;;;;4983798;28;19930;-72
2022/11/18 07:36:17;;;;;;;;;;;6.50;99.90;;;;;;4955517;28;125835;-72
2022/11/18 07:38:44;;;;;;;;;;;6.50;99.90;;;;;;4977948;28;19925;-72
2022/11/18 07:41:11;;;;;;;;;;;6.50;99.90;;;;;;4933935;28;209701;-72
2022/11/18 07:43:37;;;;;;;;;;;6.50;99.90;;;;;;4977483;28;19926;-72
2022/11/18 07:46:14;;;;;;;;;;;6.50;99.90;;;;;;4956353;28;210109;-72
2022/11/18 07:48:41;;;;;;;;;;;6.50;99.90;;;;;;4984191;28;19926;-72
2022/11/18 07:51:07;;;;;;;;;;;6.50;99.90;;;;;;4934436;28;210095;-72
2022/11/18 07:53:34;;;;;;;;;;;6.50;99.90;;;;;;4989096;28;19930;-72
2022/11/18 07:56:00;;;;;;;;;;;6.60;99.90;;;;;;4916567;28;247188;-71
2022/11/18 07:58:26;;;;;;;;;;;6.60;99.90;;;;;;4959014;28;19945;-71
2022/11/18 08:00:52;;;;;;;;;;;6.50;99.90;;;;;;4953550;28;138803;-71
2022/11/18 08:03:18;;;;;;;;;;;6.50;99.90;;;;;;4986274;28;20415;-71
2022/11/18 08:05:44;;;;;;;;;;;6.60;99.90;;;;;;4939390;28;208704;-73
2022/11/18 08:08:10;;;;;;;;;;;6.60;99.90;;;;;;4976373;28;19937;-72
2022/11/18 08:10:36;;;;;;;;;;;6.60;99.90;;;;;;4955394;28;193782;-71
2022/11/18 08:13:02;;;;;;;;;;;6.50;99.90;;;;;;4987233;28;19930;-72
2022/11/18 08:15:28;;;;;;;;;;;6.50;99.90;;;;;;4950970;28;188270;-71
2022/11/18 08:17:54;;;;;;;;;;;6.50;99.90;;;;;;4968373;28;19985;-72
2022/11/18 08:20:20;;;;;;;;;;;6.50;99.90;;;;;;4923803;28;210361;-73
2022/11/18 08:22:46;;;;;;;;;;;6.50;99.90;;;;;;5010488;28;19981;-72
2022/11/18 08:25:12;;;;;;;;;;;6.50;99.90;;;;;;4920161;28;242597;-71
2022/11/18 08:27:38;;;;;;;;;;;6.50;99.90;;;;;;4978432;28;21135;-72
2022/11/18 08:30:04;;;;;;;;;;;6.40;99.90;;;;;;4899097;28;215310;-71
2022/11/18 08:32:30;;;;;;;;;;;6.50;99.90;;;;;;4996642;28;19934;-72
2022/11/18 08:34:56;;;;;;;;;;;6.50;99.90;;;;;;4952390;28;208606;-72
2022/11/18 08:37:22;;;;;;;;;;;6.50;99.90;;;;;;4962551;28;176400;-72
2022/11/18 08:39:48;;;;;;;;;;;6.50;99.90;;;;;;4969123;28;19930;-72
2022/11/18 08:42:14;;;;;;;;;;;6.60;99.90;;;;;;4966602;28;204363;-72
2022/11/18 08:44:40;;;;;;;;;;;6.60;99.90;;;;;;4997159;28;19981;-72
2022/11/18 08:47:06;;;;;;;;;;;6.60;99.90;;;;;;4968165;28;196374;-72
2022/11/18 08:49:32;;;;;;;;;;;6.60;99.90;;;;;;4997945;28;19930;-73
2022/11/18 08:51:58;;;;;;;;;;;6.70;99.90;;;;;;4948080;28;224070;-71
2022/11/18 08:54:24;;;;;;;;;;;6.70;99.90;;;;;;4970833;28;19933;-72
2022/11/18 08:56:50;;;;;;;;;;;6.70;99.90;;;;;;4950491;28;221984;-72
2022/11/18 08:59:17;;;;;;;;;;;6.70;99.90;;;;;;4971753;28;19928;-72
2022/11/18 09:01:43;;;;;;;;;;;6.60;99.90;;;;;;4946503;28;207274;-72
2022/11/18 09:04:09;;;;;;;;;;;6.60;99.90;;;;;;4953273;28;20604;-72
2022/11/18 09:06:37;;;;;;;;;;;6.60;99.90;;;;;;4933168;28;216677;-72
2022/11/18 09:09:03;;;;;;;;;;;6.60;99.90;;;;;;4983800;28;20237;-72
2022/11/18 09:11:29;;;;;;;;;;;6.50;99.90;;;;;;4951057;28;209340;-72
2022/11/18 09:13:56;;;;;;;;;;;6.50;99.90;;;;;;4983044;28;19941;-72
2022/11/18 09:16:23;;;;;;;;;;;6.50;99.90;;;;;;4953729;28;146667;-72
2022/11/18 09:18:49;;;;;;;;;;;6.50;99.90;;;;;;4952413;28;19922;-72
2022/11/18 09:21:16;;;;;;;;;;;6.60;99.90;;;;;;4950982;28;207722;-71
2022/11/18 09:23:42;;;;;;;;;;;6.60;99.90;;;;;;4975446;28;19921;-71
2022/11/18 09:26:09;;;;;;;;;;;6.60;99.90;;;;;;4925125;28;210151;-72
2022/11/18 09:28:35;;;;;;;;;;;6.70;99.90;;;;;;4966755;28;19933;-72
2022/11/18 09:31:11;;;;;;;;;;;6.70;99.90;;;;;;4941729;28;208841;-71
2022/11/18 09:33:37;;;;;;;;;;;6.70;99.90;;;;;;4978724;28;19926;-72
2022/11/18 09:36:04;;;;;;;;;;;6.70;99.90;;;;;;4927648;28;217216;-72
2022/11/18 09:38:31;;;;;;;;;;;6.60;99.90;;;;;;4964284;28;20659;-72
2022/11/18 09:41:03;;;;;;;;;;;6.60;99.90;;;;;;4915404;28;206145;-71
2022/11/18 09:43:38;;;;;;;;;;;6.60;99.90;;;;;;4987609;28;19926;-72
2022/11/18 09:46:15;;;;;;;;;;;6.60;99.90;;;;;;4935137;28;204538;-71
2022/11/18 09:51:27;;;;;;;;;;;6.70;99.90;;;;;;4960510;28;217554;-72
2022/11/18 09:53:53;;;;;;;;;;;6.70;99.90;;;;;;4973759;28;19945;-72
2022/11/18 09:56:20;;;;;;;;;;;6.70;99.90;;;;;;4954273;28;207041;-72
2022/11/18 09:58:46;;;;;;;;;;;6.80;99.90;;;;;;4992928;28;19934;-72
2022/11/18 10:01:15;;;;;;;;;;;6.80;99.90;;;;;;4965477;28;206274;-72
2022/11/18 10:03:40;;;;;;;;;;;6.70;99.90;;;;;;5005143;28;19933;-72
2022/11/18 10:06:22;;;;;;;;;;;6.70;99.90;;;;;;4918823;28;209449;-72
2022/11/18 10:08:54;;;;;;;;;;;6.80;99.90;;;;;;4948151;28;20414;-72
2022/11/18 10:11:23;;;;;;;;;;;6.80;99.90;;;;;;4939407;28;209687;-72
2022/11/18 10:14:24;;;;;;;;;;;6.80;99.90;;;;;;4975719;28;19934;-72
2022/11/18 10:16:50;;;;;;;;;;;6.80;99.90;;;;;;4897956;28;207223;-72
2022/11/18 10:19:48;;;;;;;;;;;6.80;99.90;;;;;;4967926;28;20443;-72
2022/11/18 10:22:17;;;;;;;;;;;6.70;99.90;;;;;;4900619;28;159464;-72
2022/11/18 10:24:49;;;;;;;;;;;6.70;99.90;;;;;;4967416;28;19925;-72
2022/11/18 10:27:15;;;;;;;;;;;6.70;99.90;;;;;;4915543;28;112338;-72
2022/11/18 10:29:42;;;;;;;;;;;6.60;99.90;;;;;;4964101;28;21162;-72
2022/11/18 10:32:15;;;;;;;;;;;6.60;99.90;;;;;;4917952;28;211415;-73
2022/11/18 10:34:48;;;;;;;;;;;6.60;99.90;;;;;;4951022;28;20419;-73
2022/11/18 10:37:22;;;;;;;;;;;6.60;99.90;;;;;;4922546;28;157660;-73
2022/11/18 10:39:49;;;;;;;;;;;6.70;99.90;;;;;;4950751;28;19937;-73
2022/11/18 10:42:19;;;;;;;;;;;6.60;99.90;;;;;;4902226;28;204507;-73
2022/11/18 10:44:45;;;;;;;;;;;6.70;99.90;;;;;;4951490;28;19956;-73
2022/11/18 10:47:25;;;;;;;;;;;6.70;99.90;;;;;;4901401;28;171110;-73
2022/11/18 10:49:52;;;;;;;;;;;6.70;99.90;;;;;;4947029;28;19926;-73
2022/11/18 10:52:19;;;;;;;;;;;6.70;99.90;;;;;;4929041;28;206331;-72
2022/11/18 10:54:45;;;;;;;;;;;6.70;99.90;;;;;;4967730;28;20314;-73
2022/11/18 10:57:18;;;;;;;;;;;6.70;99.90;;;;;;4917494;28;150346;-72
2022/11/18 10:59:53;;;;;;;;;;;6.60;99.90;;;;;;4953621;28;20399;-72
2022/11/18 11:02:32;;;;;;;;;;;6.60;99.90;;;;;;4943434;28;81642;-72
2022/11/18 11:05:00;;;;;;;;;;;6.50;99.90;;;;;;4947038;28;211392;-72
2022/11/18 11:07:33;;;;;;;;;;;6.50;99.90;;;;;;4923194;28;19929;-73
2022/11/18 11:10:05;;;;;;;;;;;6.50;99.90;;;;;;4971228;28;212498;-72
2022/11/18 11:12:33;;;;;;;;;;;6.40;99.90;;;;;;4959180;28;20268;-72
2022/11/18 11:15:02;;;;;;;;;;;6.40;99.90;;;;;;4926592;28;213354;-72
2022/11/18 11:17:28;;;;;;;;;;;6.30;99.90;;;;;;4940885;28;104058;-72
2022/11/18 11:20:05;;;;;;;;;;;6.30;99.90;;;;;;4935684;28;207620;-71
2022/11/18 11:22:32;;;;;;;;;;;6.30;99.90;;;;;;4942263;28;207663;-71
2022/11/18 11:24:58;;;;;;;;;;;6.30;99.90;;;;;;4974065;28;207316;-71
2022/11/18 11:27:32;;;;;;;;;;;6.30;99.90;;;;;;4936165;28;20539;-70
2022/11/18 11:30:02;;;;;;;;;;;6.30;99.90;;;;;;4953526;28;213221;-70
2022/11/18 11:32:40;;;;;;;;;;;6.30;99.90;;;;;;4955377;28;19941;-71
2022/11/18 11:35:12;;;;;;;;;;;6.30;99.90;;;;;;4921652;28;230565;-69
2022/11/18 11:37:54;;;;;;;;;;;6.30;99.90;;;;;;5013125;28;20577;-71
2022/11/18 11:40:53;;;;;;;;;;;6.30;99.90;;;;;;4963068;28;53056;-70
2022/11/18 11:43:33;;;;;;;;;;;6.40;99.90;;;;;;4972392;28;19930;-71
2022/11/18 11:45:59;;;;;;;;;;;6.30;99.90;;;;;;4914495;28;209431;-72
2022/11/18 11:48:28;;;;;;;;;;;6.50;99.90;;;;;;4972342;28;19932;-71
2022/11/18 11:50:54;;;;;;;;;;;6.40;99.90;;;;;;4914214;28;207521;-71
2022/11/18 11:53:30;;;;;;;;;;;6.40;99.90;;;;;;4967906;28;20018;-72
2022/11/18 11:56:08;;;;;;;;;;;6.40;99.90;;;;;;4924358;28;210405;-71
2022/11/18 11:59:00;;;;;;;;;;;6.40;99.90;;;;;;4962993;28;19933;-71
2022/11/18 12:01:26;;;;;;;;;;;6.30;99.90;;;;;;4949320;28;141169;-72
2022/11/18 12:03:56;;;;;;;;;;;6.30;99.90;;;;;;4958667;28;19930;-71
2022/11/18 12:06:22;;;;;;;;;;;6.30;99.90;;;;;;4940980;28;218873;-72
2022/11/18 12:08:55;;;;;;;;;;;6.30;99.90;;;;;;4974763;28;20602;-72
2022/11/18 12:11:21;;;;;;;;;;;6.20;99.90;;;;;;4946198;28;206863;-72
2022/11/18 12:13:56;;;;;;;;;;;6.20;99.90;;;;;;4996684;28;20491;-73
2022/11/18 12:16:21;;;;;;;;;;;6.10;99.90;;;;;;4951841;28;205243;-73
2022/11/18 12:18:50;;;;;;;;;;;6.10;99.90;;;;;;4978538;28;20553;-73
2022/11/18 12:21:35;;;;;;;;;;;6.10;99.90;;;;;;4942584;28;206668;-73
2022/11/18 12:24:17;;;;;;;;;;;6.10;99.90;;;;;;4974964;28;19968;-72
2022/11/18 12:26:46;;;;;;;;;;;6.00;99.90;;;;;;4931957;28;211007;-73
2022/11/18 12:29:18;;;;;;;;;;;6.00;99.90;;;;;;4945995;28;19933;-73
2022/11/18 12:31:52;;;;;;;;;;;5.90;99.90;;;;;;4936626;28;83232;-73
2022/11/18 12:34:38;;;;;;;;;;;6.00;99.90;;;;;;4980101;28;19932;-73
2022/11/18 12:37:33;;;;;;;;;;;6.00;99.90;;;;;;4963113;28;206312;-73
2022/11/18 12:39:59;;;;;;;;;;;5.90;99.90;;;;;;4950406;28;207239;-72
2022/11/18 12:45:46;;;;;;;;;;;6.00;99.90;;;;;;4942179;28;225413;-72
2022/11/18 12:48:21;;;;;;;;;;;6.20;99.90;;;;;;4954104;28;19974;-74
2022/11/18 12:50:48;;;;;;;;;;;6.20;99.90;;;;;;4936946;28;198093;-73
2022/11/18 12:53:33;;;;;;;;;;;6.20;99.90;;;;;;4977750;28;19930;-74
2022/11/18 12:55:58;;;;;;;;;;;6.20;99.90;;;;;;4945136;28;207902;-73
2022/11/18 12:58:25;;;;;;;;;;;6.20;99.90;;;;;;4992562;28;19922;-73
2022/11/18 13:01:04;;;;;;;;;;;6.20;99.90;;;;;;4948014;28;165339;-73
2022/11/18 13:03:31;;;;;;;;;;;6.20;99.90;;;;;;4959225;28;20407;-74
2022/11/18 13:05:59;;;;;;;;;;;6.20;99.90;;;;;;4903983;28;214342;-73
2022/11/18 13:08:25;;;;;;;;;;;6.20;99.90;;;;;;4963085;28;19922;-74
2022/11/18 13:11:43;;;;;;;;;;;6.20;99.90;;;;;;4905357;28;229459;-72
2022/11/18 13:13:40;;;;;;;;;;;6.20;99.90;;;;;;4969598;28;19938;-72
2022/11/18 13:19:08;;;;;;;;;;;6.10;99.90;;;;;;4979281;28;19922;-73
2022/11/18 13:24:19;;;;;;;;;;;6.10;99.90;;;;;;4973000;28;19922;-73
2022/11/18 13:26:46;;;;;;;;;;;6.00;99.90;;;;;;4956795;28;217099;-73
2022/11/18 13:29:15;;;;;;;;;;;5.90;99.90;;;;;;4967047;28;20451;-74
2022/11/18 13:31:47;;;;;;;;;;;5.90;99.90;;;;;;4952882;28;205942;-74
2022/11/18 13:34:20;;;;;;;;;;;5.90;99.90;;;;;;4966593;28;19978;-73
2022/11/18 13:36:47;;;;;;;;;;;5.90;99.90;;;;;;4952382;28;201593;-73
2022/11/18 13:39:24;;;;;;;;;;;5.90;99.90;;;;;;4967189;28;19926;-73
2022/11/18 13:42:03;;;;;;;;;;;5.90;99.90;;;;;;4955345;28;132130;-74
2022/11/18 13:44:31;;;;;;;;;;;5.80;99.90;;;;;;4962043;28;19929;-72
2022/11/18 13:47:17;;;;;;;;;;;5.80;99.90;;;;;;4973714;28;81835;-73
2022/11/18 13:49:54;;;;;;;;;;;5.70;99.90;;;;;;4950351;28;19945;-74
2022/11/18 13:52:22;;;;;;;;;;;5.70;99.90;;;;;;4961164;28;214625;-73
2022/11/18 13:54:50;;;;;;;;;;;5.70;99.90;;;;;;4987958;28;20452;-74
2022/11/18 13:57:18;;;;;;;;;;;5.70;99.90;;;;;;4953395;28;236188;-74
2022/11/18 13:59:46;;;;;;;;;;;5.70;99.90;;;;;;4978508;28;20578;-73
2022/11/18 14:02:12;;;;;;;;;;;5.70;99.90;;;;;;4950698;28;207023;-73
2022/11/18 14:04:46;;;;;;;;;;;5.70;99.90;;;;;;4979009;28;19922;-74
2022/11/18 14:07:24;;;;;;;;;;;5.60;99.90;;;;;;4935397;28;164720;-73
2022/11/18 14:10:01;;;;;;;;;;;5.60;99.90;;;;;;4996107;28;19945;-73
2022/11/18 14:12:28;;;;;;;;;;;5.50;99.90;;;;;;4935211;28;205124;-72
2022/11/18 14:15:11;;;;;;;;;;;5.40;99.90;;;;;;4950576;28;208795;-73
2022/11/18 14:17:37;;;;;;;;;;;5.50;99.90;;;;;;4941756;28;156448;-72
2022/11/18 14:20:06;;;;;;;;;;;5.50;99.90;;;;;;4916489;28;208453;-73
2022/11/18 14:22:33;;;;;;;;;;;5.60;99.90;;;;;;5021408;28;19926;-73
2022/11/18 14:25:00;;;;;;;;;;;5.60;99.90;;;;;;4959738;28;221988;-73
2022/11/18 14:27:32;;;;;;;;;;;5.60;99.90;;;;;;4981274;28;19922;-73
2022/11/18 14:29:58;;;;;;;;;;;5.50;99.90;;;;;;4960136;28;209421;-72
2022/11/18 14:32:27;;;;;;;;;;;5.50;99.90;;;;;;4994303;28;20291;-73
2022/11/18 14:35:00;;;;;;;;;;;5.50;99.90;;;;;;4963170;28;212245;-71
2022/11/18 14:37:26;;;;;;;;;;;5.50;99.90;;;;;;4974981;28;199229;-73
2022/11/18 14:39:56;;;;;;;;;;;5.50;99.90;;;;;;4987320;28;19933;-72
2022/11/18 14:42:22;;;;;;;;;;;5.40;99.90;;;;;;4919699;28;205943;-73
2022/11/18 14:44:49;;;;;;;;;;;5.30;99.90;;;;;;4967241;28;19922;-73
2022/11/18 14:47:33;;;;;;;;;;;5.30;99.90;;;;;;4968743;28;175204;-73
2022/11/18 14:49:59;;;;;;;;;;;5.20;99.90;;;;;;4975378;28;208188;-73
2022/11/18 14:52:25;;;;;;;;;;;5.20;99.90;;;;;;4962388;28;19926;-74
2022/11/18 14:54:51;;;;;;;;;;;5.20;99.90;;;;;;4966729;28;20006;-74
2022/11/18 14:57:17;;;;;;;;;;;5.20;99.90;;;;;;4931098;28;218143;-73
2022/11/18 14:59:43;;;;;;;;;;;5.10;99.90;;;;;;4953440;28;19927;-73
2022/11/18 15:02:14;;;;;;;;;;;5.00;99.90;;;;;;4954482;28;133813;-73